Mountain Ash, United Kingdom
Current Conditions -  °F | °C
As of 12:20 PM on Tuesday 27 Jan 2015 (Local Time) from EGFF Reporting Station
Overcast Overcast  
Wind Chill:   Ceiling: 2500
Heat Index:   Visibility: 6mi
Dew Point:   Wind: 17mph
Humidity: 76%   Direction: 300°WNW
Pressure: 30.36"   Gusts: NA
Location:  51.68°N, 3.38°W
Report Text: EGFF 271220Z AUTO 30015KT 9999 OVC025 08/04 Q1028
Loading
Personal Weather Stations






























Interactive Weather Map New forecast layout! Learn more

10-Day Weather Forecast

Advertisements
Track Severe Weather on mobile